Loyal, WI

1:28 PM CDT on July 12, 2014 (GMT -0500)
Black River Falls Area (KBCK) Elev 837 ft | 44.25 °N, 90.86 °W | Change Station

Current weather conditions updated 13 minutes ago

Scattered Clouds
Scattered Clouds
76 °F
Feels Like 76 °F
N
0
Wind Variable Wind from North

Today is forecast to be nearly the same temperature as yesterday. A few thunderstorms possible.

Today
High -- | Low -- °F
--% Chance of Precip.
Yesterday
High -- | Low -- °F
Precip. -- in
5:27 AM 8:46 PM
Full, 100% visible
Pressure 29.96 in
Visibility 10.0 miles
Clouds Scattered Clouds 1400 ft
Scattered Clouds 12000 ft
Dew Point 70 °F
Humidity 81%
Rainfall 0.00 in
Snow Depth Not available.
UV 9 out of 12
Pollen 2.40 out of 12
Air Quality Not available.
Flu Activity Sporadic
METAR KBCK 121815Z AUTO 00000KT 10SM SCT014 SCT120 25/21 A2996 RMK AO2 T02450210

More Conditions Fewer Conditions

Pressure 29.96 in
Visibility 10.0 miles
Clouds Scattered Clouds 1400 ft
Scattered Clouds 12000 ft
Dew Point 70 °F
Humidity 81%
Rainfall 0.00 in
Snow Depth Not available.
UV 9 out of 12
Pollen 2.40 out of 12
Air Quality Not available.
Flu Activity Sporadic
METAR KBCK 121815Z AUTO 00000KT 10SM SCT014 SCT120 25/21 A2996 RMK AO2 T02450210

More Conditions Fewer Conditions

10-Day Weather Forecast

Almanac

Astronomy

Jul. 12, 2014 Rise Set
Actual Time 5:27 AM CDT 8:46 PM CDT
Civil Twilight 4:51 AM CDT 9:22 PM CDT
Nautical Twilight 4:05 AM CDT 10:09 PM CDT
Astronomical Twilight 3:06 AM CDT 11:07 PM CDT
Moon 8:43 PM CDT 5:51 AM CDT
Length of Visible Light 16h 30m
Length of Day
15h 18m
Tomorrow will be 1m 29s shorter.
Full, 100% of the Moon is Illuminated
Today
Full
Jul 18
Last Quarter
Jul 26
New
Aug 3
First Quarter
Aug 10
Full

Today's Extremes

State Highs State Lows

Community

WunderPhotos

Upload Photos

1,732,908 photos uploaded!

WunderBlogs® & News

By Dr. Jeff Masters
Director of Meteorology, Weather Underground
By Kari Strenfel
Meteorologist, Weather Underground
By Christopher C. Burt
Weather Historian, Weather Underground
July 12, 2014
July 12, 2014
July 12, 2014

Nearby

Snow Depth

Station Depth Elevation
No new snow has been reported.

Earthquake Activity

City Distance Mag. Time & Date
No recent earthquake activity has been reported nearby.
Minimum magnitude displayed is 2.5.

Coastal Water Temperatures

Place Temperature
No Stations Reporting

Nearby Weather Stations

Station Location Temp. Heat Index Dew Point Humidity Wind Precip. Elev Updated Type
WIDOT Abbotsford - STH 29 3 mi E of Abbo, Abbotsford, WI 75 °F 74 °F 73 °F 93% NNW  at  0 mph 0.00 in / hr 1400 ft 11:52 AM CDT MADIS

Show More Stations Show Fewer Stations